sensor_id;sensor_type;location;lat;lon;timestamp;P1;durP1;ratioP1;P2;durP2;ratioP2
30243;SDS011;64022;53.652;9.792;2023-03-21T00:00:02;29.23;;;21.47;;
30243;SDS011;64022;53.652;9.792;2023-03-21T00:02:28;28.45;;;20.85;;
30243;SDS011;64022;53.652;9.792;2023-03-21T00:04:54;29.67;;;21.10;;
30243;SDS011;64022;53.652;9.792;2023-03-21T00:07:20;31.17;;;21.87;;
30243;SDS011;64022;53.652;9.792;2023-03-21T00:09:45;29.17;;;20.70;;
30243;SDS011;64022;53.652;9.792;2023-03-21T00:12:11;28.57;;;20.87;;
30243;SDS011;64022;53.652;9.792;2023-03-21T00:14:36;31.23;;;21.07;;
30243;SDS011;64022;53.652;9.792;2023-03-21T00:17:03;32.30;;;22.90;;
30243;SDS011;64022;53.652;9.792;2023-03-21T00:19:28;28.20;;;20.88;;
30243;SDS011;64022;53.652;9.792;2023-03-21T00:21:54;27.43;;;20.17;;
30243;SDS011;64022;53.652;9.792;2023-03-21T00:24:20;29.83;;;21.05;;
30243;SDS011;64022;53.652;9.792;2023-03-21T00:26:47;28.90;;;20.30;;
30243;SDS011;64022;53.652;9.792;2023-03-21T00:29:13;27.60;;;20.77;;
30243;SDS011;64022;53.652;9.792;2023-03-21T00:31:38;28.57;;;20.33;;
30243;SDS011;64022;53.652;9.792;2023-03-21T00:34:04;29.63;;;20.43;;
30243;SDS011;64022;53.652;9.792;2023-03-21T00:36:30;28.10;;;20.13;;
30243;SDS011;64022;53.652;9.792;2023-03-21T00:38:55;26.80;;;19.60;;
30243;SDS011;64022;53.652;9.792;2023-03-21T00:41:21;27.43;;;19.60;;
30243;SDS011;64022;53.652;9.792;2023-03-21T00:43:46;29.43;;;20.07;;
30243;SDS011;64022;53.652;9.792;2023-03-21T00:46:12;28.20;;;20.43;;
30243;SDS011;64022;53.652;9.792;2023-03-21T00:48:37;27.90;;;19.80;;
30243;SDS011;64022;53.652;9.792;2023-03-21T00:51:09;25.63;;;18.90;;
30243;SDS011;64022;53.652;9.792;2023-03-21T00:53:45;25.75;;;18.88;;
30243;SDS011;64022;53.652;9.792;2023-03-21T00:56:11;27.20;;;19.17;;
30243;SDS011;64022;53.652;9.792;2023-03-21T00:58:36;29.30;;;19.87;;
30243;SDS011;64022;53.652;9.792;2023-03-21T01:01:02;26.10;;;18.13;;
30243;SDS011;64022;53.652;9.792;2023-03-21T01:03:28;25.73;;;19.23;;
30243;SDS011;64022;53.652;9.792;2023-03-21T01:05:53;27.27;;;18.33;;
30243;SDS011;64022;53.652;9.792;2023-03-21T01:08:29;24.60;;;18.08;;
30243;SDS011;64022;53.652;9.792;2023-03-21T01:11:04;24.30;;;17.60;;
30243;SDS011;64022;53.652;9.792;2023-03-21T01:13:32;26.95;;;19.55;;
30243;SDS011;64022;53.652;9.792;2023-03-21T01:15:58;25.23;;;18.43;;
30243;SDS011;64022;53.652;9.792;2023-03-21T01:18:25;24.20;;;17.87;;
30243;SDS011;64022;53.652;9.792;2023-03-21T01:20:54;22.55;;;16.77;;
30243;SDS011;64022;53.652;9.792;2023-03-21T01:23:24;23.40;;;17.45;;
30243;SDS011;64022;53.652;9.792;2023-03-21T01:25:51;24.40;;;17.55;;
30243;SDS011;64022;53.652;9.792;2023-03-21T01:28:18;25.80;;;18.15;;
30243;SDS011;64022;53.652;9.792;2023-03-21T01:30:45;26.60;;;18.07;;
30243;SDS011;64022;53.652;9.792;2023-03-21T01:33:12;22.90;;;17.10;;
30243;SDS011;64022;53.652;9.792;2023-03-21T01:35:38;25.77;;;18.55;;
30243;SDS011;64022;53.652;9.792;2023-03-21T01:38:03;24.33;;;18.10;;
30243;SDS011;64022;53.652;9.792;2023-03-21T01:40:29;22.67;;;16.43;;
30243;SDS011;64022;53.652;9.792;2023-03-21T01:42:55;22.83;;;17.17;;
30243;SDS011;64022;53.652;9.792;2023-03-21T01:48:24;24.85;;;16.90;;
30243;SDS011;64022;53.652;9.792;2023-03-21T01:50:52;24.40;;;16.75;;
30243;SDS011;64022;53.652;9.792;2023-03-21T01:53:18;22.67;;;16.90;;
30243;SDS011;64022;53.652;9.792;2023-03-21T01:55:46;23.65;;;16.73;;
30243;SDS011;64022;53.652;9.792;2023-03-21T01:58:14;25.27;;;17.13;;
30243;SDS011;64022;53.652;9.792;2023-03-21T02:00:42;22.10;;;16.02;;
30243;SDS011;64022;53.652;9.792;2023-03-21T02:03:12;21.63;;;15.75;;
30243;SDS011;64022;53.652;9.792;2023-03-21T02:05:44;22.30;;;16.33;;
30243;SDS011;64022;53.652;9.792;2023-03-21T02:08:15;24.10;;;17.13;;
30243;SDS011;64022;53.652;9.792;2023-03-21T02:10:41;21.57;;;15.23;;
30243;SDS011;64022;53.652;9.792;2023-03-21T02:13:09;21.45;;;16.48;;
30243;SDS011;64022;53.652;9.792;2023-03-21T02:15:39;23.73;;;16.97;;
30243;SDS011;64022;53.652;9.792;2023-03-21T02:18:20;19.63;;;14.30;;
30243;SDS011;64022;53.652;9.792;2023-03-21T02:24:20;19.20;;;14.98;;
30243;SDS011;64022;53.652;9.792;2023-03-21T02:30:02;20.38;;;15.88;;
30243;SDS011;64022;53.652;9.792;2023-03-21T02:39:09;21.17;;;16.05;;
30243;SDS011;64022;53.652;9.792;2023-03-21T02:44:22;19.58;;;14.90;;
30243;SDS011;64022;53.652;9.792;2023-03-21T02:46:59;20.48;;;15.43;;
30243;SDS011;64022;53.652;9.792;2023-03-21T02:49:30;20.25;;;14.80;;
30243;SDS011;64022;53.652;9.792;2023-03-21T02:52:05;19.75;;;15.77;;
30243;SDS011;64022;53.652;9.792;2023-03-21T02:54:34;20.33;;;14.50;;
30243;SDS011;64022;53.652;9.792;2023-03-21T02:57:02;19.42;;;14.88;;
30243;SDS011;64022;53.652;9.792;2023-03-21T02:59:29;19.83;;;14.98;;
30243;SDS011;64022;53.652;9.792;2023-03-21T03:01:55;21.63;;;15.55;;
30243;SDS011;64022;53.652;9.792;2023-03-21T03:04:24;22.75;;;15.52;;
30243;SDS011;64022;53.652;9.792;2023-03-21T03:07:01;18.80;;;14.18;;
30243;SDS011;64022;53.652;9.792;2023-03-21T03:14:58;18.52;;;13.75;;
30243;SDS011;64022;53.652;9.792;2023-03-21T03:17:33;19.42;;;13.70;;
30243;SDS011;64022;53.652;9.792;2023-03-21T03:22:49;20.05;;;14.98;;
30243;SDS011;64022;53.652;9.792;2023-03-21T03:25:25;18.20;;;13.70;;
30243;SDS011;64022;53.652;9.792;2023-03-21T03:27:55;18.40;;;14.18;;
30243;SDS011;64022;53.652;9.792;2023-03-21T03:30:23;18.73;;;13.02;;
30243;SDS011;64022;53.652;9.792;2023-03-21T03:32:52;17.88;;;13.43;;
30243;SDS011;64022;53.652;9.792;2023-03-21T03:35:23;18.70;;;14.45;;
30243;SDS011;64022;53.652;9.792;2023-03-21T03:37:52;18.13;;;13.57;;
30243;SDS011;64022;53.652;9.792;2023-03-21T03:40:30;19.45;;;14.00;;
30243;SDS011;64022;53.652;9.792;2023-03-21T03:43:09;16.88;;;13.57;;
30243;SDS011;64022;53.652;9.792;2023-03-21T03:45:43;17.92;;;13.23;;
30243;SDS011;64022;53.652;9.792;2023-03-21T03:48:21;17.27;;;13.02;;
30243;SDS011;64022;53.652;9.792;2023-03-21T03:51:08;17.27;;;13.15;;
30243;SDS011;64022;53.652;9.792;2023-03-21T03:53:39;18.15;;;12.98;;
30243;SDS011;64022;53.652;9.792;2023-03-21T03:56:09;17.27;;;13.02;;
30243;SDS011;64022;53.652;9.792;2023-03-21T04:01:03;16.50;;;13.10;;
30243;SDS011;64022;53.652;9.792;2023-03-21T04:03:31;17.60;;;13.25;;
30243;SDS011;64022;53.652;9.792;2023-03-21T04:05:57;19.05;;;13.80;;
30243;SDS011;64022;53.652;9.792;2023-03-21T04:08:23;16.67;;;13.03;;
30243;SDS011;64022;53.652;9.792;2023-03-21T04:10:48;18.07;;;12.77;;
30243;SDS011;64022;53.652;9.792;2023-03-21T04:13:14;16.00;;;12.20;;
30243;SDS011;64022;53.652;9.792;2023-03-21T04:15:40;14.20;;;11.17;;
30243;SDS011;64022;53.652;9.792;2023-03-21T04:18:08;15.27;;;11.63;;
30243;SDS011;64022;53.652;9.792;2023-03-21T04:20:33;15.82;;;11.27;;
30243;SDS011;64022;53.652;9.792;2023-03-21T04:22:59;14.07;;;11.20;;
30243;SDS011;64022;53.652;9.792;2023-03-21T04:25:24;17.43;;;11.47;;
30243;SDS011;64022;53.652;9.792;2023-03-21T04:27:52;17.20;;;10.65;;
30243;SDS011;64022;53.652;9.792;2023-03-21T04:30:19;13.52;;;10.45;;
30243;SDS011;64022;53.652;9.792;2023-03-21T04:32:45;17.07;;;11.97;;
30243;SDS011;64022;53.652;9.792;2023-03-21T04:35:20;17.35;;;11.80;;
30243;SDS011;64022;53.652;9.792;2023-03-21T04:37:46;13.52;;;10.50;;
30243;SDS011;64022;53.652;9.792;2023-03-21T04:40:12;14.80;;;11.60;;
30243;SDS011;64022;53.652;9.792;2023-03-21T04:42:41;14.00;;;10.55;;
30243;SDS011;64022;53.652;9.792;2023-03-21T04:45:07;13.63;;;10.47;;
30243;SDS011;64022;53.652;9.792;2023-03-21T04:47:33;12.67;;;10.07;;
30243;SDS011;64022;53.652;9.792;2023-03-21T04:49:58;15.87;;;10.73;;
30243;SDS011;64022;53.652;9.792;2023-03-21T04:52:24;12.87;;;10.47;;
30243;SDS011;64022;53.652;9.792;2023-03-21T04:54:50;15.67;;;10.70;;
30243;SDS011;64022;53.652;9.792;2023-03-21T04:57:16;13.93;;;10.77;;
30243;SDS011;64022;53.652;9.792;2023-03-21T04:59:41;12.83;;;9.80;;
30243;SDS011;64022;53.652;9.792;2023-03-21T05:02:07;15.63;;;10.57;;
30243;SDS011;64022;53.652;9.792;2023-03-21T05:04:32;15.43;;;10.50;;
30243;SDS011;64022;53.652;9.792;2023-03-21T05:06:58;12.97;;;10.47;;
30243;SDS011;64022;53.652;9.792;2023-03-21T05:09:24;13.10;;;9.43;;
30243;SDS011;64022;53.652;9.792;2023-03-21T05:11:49;13.17;;;10.07;;
30243;SDS011;64022;53.652;9.792;2023-03-21T05:14:17;13.70;;;11.13;;
30243;SDS011;64022;53.652;9.792;2023-03-21T05:16:45;13.63;;;10.68;;
30243;SDS011;64022;53.652;9.792;2023-03-21T05:19:18;14.10;;;10.48;;
30243;SDS011;64022;53.652;9.792;2023-03-21T05:21:46;14.32;;;10.35;;
30243;SDS011;64022;53.652;9.792;2023-03-21T05:24:13;13.07;;;10.07;;
30243;SDS011;64022;53.652;9.792;2023-03-21T05:26:44;12.77;;;10.05;;
30243;SDS011;64022;53.652;9.792;2023-03-21T05:29:17;12.82;;;10.05;;
30243;SDS011;64022;53.652;9.792;2023-03-21T05:31:43;13.48;;;10.00;;
30243;SDS011;64022;53.652;9.792;2023-03-21T05:36:36;12.10;;;9.45;;
30243;SDS011;64022;53.652;9.792;2023-03-21T05:39:02;13.60;;;9.95;;
30243;SDS011;64022;53.652;9.792;2023-03-21T05:41:29;15.27;;;9.90;;
30243;SDS011;64022;53.652;9.792;2023-03-21T05:43:54;11.83;;;9.77;;
30243;SDS011;64022;53.652;9.792;2023-03-21T05:46:20;14.23;;;10.50;;
30243;SDS011;64022;53.652;9.792;2023-03-21T05:48:46;11.30;;;9.50;;
30243;SDS011;64022;53.652;9.792;2023-03-21T05:51:11;12.23;;;9.50;;
30243;SDS011;64022;53.652;9.792;2023-03-21T05:53:37;10.67;;;9.17;;
30243;SDS011;64022;53.652;9.792;2023-03-21T05:56:02;12.93;;;9.13;;
30243;SDS011;64022;53.652;9.792;2023-03-21T05:58:28;13.73;;;9.77;;
30243;SDS011;64022;53.652;9.792;2023-03-21T06:00:54;12.70;;;9.57;;
30243;SDS011;64022;53.652;9.792;2023-03-21T06:03:19;12.50;;;9.50;;
30243;SDS011;64022;53.652;9.792;2023-03-21T06:05:45;15.17;;;10.27;;
30243;SDS011;64022;53.652;9.792;2023-03-21T06:08:10;10.77;;;8.80;;
30243;SDS011;64022;53.652;9.792;2023-03-21T06:10:36;12.68;;;9.15;;
30243;SDS011;64022;53.652;9.792;2023-03-21T06:13:02;12.27;;;8.77;;
30243;SDS011;64022;53.652;9.792;2023-03-21T06:15:28;12.45;;;9.75;;
30243;SDS011;64022;53.652;9.792;2023-03-21T06:17:54;14.33;;;10.17;;
30243;SDS011;64022;53.652;9.792;2023-03-21T06:20:19;11.20;;;9.60;;
30243;SDS011;64022;53.652;9.792;2023-03-21T06:22:45;11.47;;;8.63;;
30243;SDS011;64022;53.652;9.792;2023-03-21T06:25:10;13.20;;;9.07;;
30243;SDS011;64022;53.652;9.792;2023-03-21T06:27:36;10.97;;;8.20;;
30243;SDS011;64022;53.652;9.792;2023-03-21T06:30:02;14.57;;;9.67;;
30243;SDS011;64022;53.652;9.792;2023-03-21T06:32:29;10.18;;;8.45;;
30243;SDS011;64022;53.652;9.792;2023-03-21T06:34:55;10.50;;;8.73;;
30243;SDS011;64022;53.652;9.792;2023-03-21T06:37:20;11.10;;;9.00;;
30243;SDS011;64022;53.652;9.792;2023-03-21T06:39:46;11.73;;;8.80;;
30243;SDS011;64022;53.652;9.792;2023-03-21T06:42:12;11.43;;;8.80;;
30243;SDS011;64022;53.652;9.792;2023-03-21T06:44:38;13.00;;;9.40;;
30243;SDS011;64022;53.652;9.792;2023-03-21T06:47:04;10.97;;;8.73;;
30243;SDS011;64022;53.652;9.792;2023-03-21T06:49:30;13.70;;;9.23;;
30243;SDS011;64022;53.652;9.792;2023-03-21T06:51:56;12.73;;;8.93;;
30243;SDS011;64022;53.652;9.792;2023-03-21T06:54:21;11.47;;;9.13;;
30243;SDS011;64022;53.652;9.792;2023-03-21T06:56:47;11.43;;;8.57;;
30243;SDS011;64022;53.652;9.792;2023-03-21T06:59:12;10.53;;;8.60;;
30243;SDS011;64022;53.652;9.792;2023-03-21T07:01:38;11.13;;;8.73;;
30243;SDS011;64022;53.652;9.792;2023-03-21T07:04:05;10.60;;;8.47;;
30243;SDS011;64022;53.652;9.792;2023-03-21T07:06:31;10.13;;;8.30;;
30243;SDS011;64022;53.652;9.792;2023-03-21T07:08:57;9.55;;;7.68;;
30243;SDS011;64022;53.652;9.792;2023-03-21T07:11:23;10.75;;;8.48;;
30243;SDS011;64022;53.652;9.792;2023-03-21T07:13:50;9.80;;;8.32;;
30243;SDS011;64022;53.652;9.792;2023-03-21T07:16:16;10.65;;;8.10;;
30243;SDS011;64022;53.652;9.792;2023-03-21T07:18:42;10.68;;;8.13;;
30243;SDS011;64022;53.652;9.792;2023-03-21T07:21:08;10.93;;;8.37;;
30243;SDS011;64022;53.652;9.792;2023-03-21T07:23:34;10.32;;;7.85;;
30243;SDS011;64022;53.652;9.792;2023-03-21T07:26:02;12.10;;;8.70;;
30243;SDS011;64022;53.652;9.792;2023-03-21T07:28:28;11.10;;;8.18;;
30243;SDS011;64022;53.652;9.792;2023-03-21T07:30:56;10.52;;;8.13;;
30243;SDS011;64022;53.652;9.792;2023-03-21T07:33:23;9.95;;;7.78;;
30243;SDS011;64022;53.652;9.792;2023-03-21T07:35:50;9.25;;;7.47;;
30243;SDS011;64022;53.652;9.792;2023-03-21T07:38:17;9.75;;;7.95;;
30243;SDS011;64022;53.652;9.792;2023-03-21T07:40:43;8.95;;;7.00;;
30243;SDS011;64022;53.652;9.792;2023-03-21T07:43:10;19.20;;;9.13;;
30243;SDS011;64022;53.652;9.792;2023-03-21T07:45:35;16.63;;;7.90;;
30243;SDS011;64022;53.652;9.792;2023-03-21T07:48:01;22.60;;;8.97;;
30243;SDS011;64022;53.652;9.792;2023-03-21T07:50:26;18.57;;;8.50;;
30243;SDS011;64022;53.652;9.792;2023-03-21T07:52:52;15.97;;;8.03;;
30243;SDS011;64022;53.652;9.792;2023-03-21T07:55:19;16.90;;;8.57;;
30243;SDS011;64022;53.652;9.792;2023-03-21T08:02:46;12.52;;;7.32;;
30243;SDS011;64022;53.652;9.792;2023-03-21T08:05:19;17.27;;;8.00;;
30243;SDS011;64022;53.652;9.792;2023-03-21T08:07:45;12.20;;;7.40;;
30243;SDS011;64022;53.652;9.792;2023-03-21T08:10:11;15.77;;;7.47;;
30243;SDS011;64022;53.652;9.792;2023-03-21T08:12:37;14.37;;;8.60;;
30243;SDS011;64022;53.652;9.792;2023-03-21T08:15:03;20.30;;;8.53;;
30243;SDS011;64022;53.652;9.792;2023-03-21T08:17:28;13.03;;;7.63;;
30243;SDS011;64022;53.652;9.792;2023-03-21T08:19:54;19.23;;;7.70;;
30243;SDS011;64022;53.652;9.792;2023-03-21T08:22:20;17.73;;;7.33;;
30243;SDS011;64022;53.652;9.792;2023-03-21T08:24:45;11.43;;;6.90;;
30243;SDS011;64022;53.652;9.792;2023-03-21T08:27:11;15.47;;;8.63;;
30243;SDS011;64022;53.652;9.792;2023-03-21T08:29:37;18.40;;;7.17;;
30243;SDS011;64022;53.652;9.792;2023-03-21T08:32:04;18.30;;;8.52;;
30243;SDS011;64022;53.652;9.792;2023-03-21T08:34:30;13.88;;;8.52;;
30243;SDS011;64022;53.652;9.792;2023-03-21T08:36:56;19.43;;;9.10;;
30243;SDS011;64022;53.652;9.792;2023-03-21T08:39:21;17.83;;;8.10;;
30243;SDS011;64022;53.652;9.792;2023-03-21T08:41:48;22.45;;;7.85;;
30243;SDS011;64022;53.652;9.792;2023-03-21T08:44:14;18.87;;;9.47;;
30243;SDS011;64022;53.652;9.792;2023-03-21T08:46:41;12.48;;;8.05;;
30243;SDS011;64022;53.652;9.792;2023-03-21T08:49:06;21.80;;;10.10;;
30243;SDS011;64022;53.652;9.792;2023-03-21T08:51:32;17.33;;;9.00;;
30243;SDS011;64022;53.652;9.792;2023-03-21T08:53:58;17.42;;;8.90;;
30243;SDS011;64022;53.652;9.792;2023-03-21T08:56:24;16.33;;;9.10;;
30243;SDS011;64022;53.652;9.792;2023-03-21T08:58:50;15.43;;;8.87;;
30243;SDS011;64022;53.652;9.792;2023-03-21T09:01:15;17.63;;;8.27;;
30243;SDS011;64022;53.652;9.792;2023-03-21T09:03:41;16.20;;;8.73;;
30243;SDS011;64022;53.652;9.792;2023-03-21T09:06:08;17.58;;;8.52;;
30243;SDS011;64022;53.652;9.792;2023-03-21T09:08:36;19.75;;;8.82;;
30243;SDS011;64022;53.652;9.792;2023-03-21T09:11:02;18.70;;;8.25;;
30243;SDS011;64022;53.652;9.792;2023-03-21T09:13:28;13.03;;;8.00;;
30243;SDS011;64022;53.652;9.792;2023-03-21T09:15:54;15.70;;;8.80;;
30243;SDS011;64022;53.652;9.792;2023-03-21T09:18:22;17.02;;;8.40;;
30243;SDS011;64022;53.652;9.792;2023-03-21T09:21:06;22.90;;;8.32;;
30243;SDS011;64022;53.652;9.792;2023-03-21T09:23:37;13.05;;;7.93;;
30243;SDS011;64022;53.652;9.792;2023-03-21T09:26:03;15.15;;;7.88;;
30243;SDS011;64022;53.652;9.792;2023-03-21T09:28:29;15.77;;;8.98;;
30243;SDS011;64022;53.652;9.792;2023-03-21T09:30:57;12.83;;;8.23;;
30243;SDS011;64022;53.652;9.792;2023-03-21T09:33:24;16.17;;;8.65;;
30243;SDS011;64022;53.652;9.792;2023-03-21T09:35:52;15.13;;;9.27;;
30243;SDS011;64022;53.652;9.792;2023-03-21T09:43:42;17.38;;;8.60;;
30243;SDS011;64022;53.652;9.792;2023-03-21T09:46:59;16.02;;;8.25;;
30243;SDS011;64022;53.652;9.792;2023-03-21T09:49:06;14.48;;;9.18;;
30243;SDS011;64022;53.652;9.792;2023-03-21T09:51:45;15.65;;;8.65;;
30243;SDS011;64022;53.652;9.792;2023-03-21T09:54:16;15.68;;;8.20;;
30243;SDS011;64022;53.652;9.792;2023-03-21T09:56:46;16.50;;;8.40;;
30243;SDS011;64022;53.652;9.792;2023-03-21T09:59:18;15.45;;;8.43;;
30243;SDS011;64022;53.652;9.792;2023-03-21T10:01:55;16.42;;;8.13;;
30243;SDS011;64022;53.652;9.792;2023-03-21T10:04:24;18.98;;;9.00;;
30243;SDS011;64022;53.652;9.792;2023-03-21T10:06:58;16.42;;;8.52;;
30243;SDS011;64022;53.652;9.792;2023-03-21T10:09:26;15.93;;;8.52;;
30243;SDS011;64022;53.652;9.792;2023-03-21T10:11:58;18.55;;;9.13;;
30243;SDS011;64022;53.652;9.792;2023-03-21T10:14:28;13.93;;;7.88;;
30243;SDS011;64022;53.652;9.792;2023-03-21T10:16:56;15.88;;;8.20;;
30243;SDS011;64022;53.652;9.792;2023-03-21T10:19:26;14.90;;;8.40;;
30243;SDS011;64022;53.652;9.792;2023-03-21T10:21:52;18.88;;;9.80;;
30243;SDS011;64022;53.652;9.792;2023-03-21T10:24:19;15.37;;;9.33;;
30243;SDS011;64022;53.652;9.792;2023-03-21T10:26:48;16.00;;;9.40;;
30243;SDS011;64022;53.652;9.792;2023-03-21T10:29:15;15.75;;;9.45;;
30243;SDS011;64022;53.652;9.792;2023-03-21T10:31:42;15.98;;;9.35;;
30243;SDS011;64022;53.652;9.792;2023-03-21T10:36:41;14.55;;;9.70;;
30243;SDS011;64022;53.652;9.792;2023-03-21T10:39:13;17.88;;;9.77;;
30243;SDS011;64022;53.652;9.792;2023-03-21T10:41:58;19.27;;;9.93;;
30243;SDS011;64022;53.652;9.792;2023-03-21T10:44:28;17.30;;;9.43;;
30243;SDS011;64022;53.652;9.792;2023-03-21T10:46:56;14.50;;;9.43;;
30243;SDS011;64022;53.652;9.792;2023-03-21T10:49:23;17.80;;;10.27;;
30243;SDS011;64022;53.652;9.792;2023-03-21T10:51:51;19.23;;;9.82;;
30243;SDS011;64022;53.652;9.792;2023-03-21T10:54:20;18.63;;;10.32;;
30243;SDS011;64022;53.652;9.792;2023-03-21T10:56:52;15.88;;;10.52;;
30243;SDS011;64022;53.652;9.792;2023-03-21T10:59:27;15.82;;;10.23;;
30243;SDS011;64022;53.652;9.792;2023-03-21T11:01:59;15.93;;;9.95;;
30243;SDS011;64022;53.652;9.792;2023-03-21T11:04:29;19.02;;;10.50;;
30243;SDS011;64022;53.652;9.792;2023-03-21T11:06:56;17.52;;;10.95;;
30243;SDS011;64022;53.652;9.792;2023-03-21T11:09:40;20.65;;;12.05;;
30243;SDS011;64022;53.652;9.792;2023-03-21T11:12:11;18.77;;;11.07;;
30243;SDS011;64022;53.652;9.792;2023-03-21T11:14:49;14.73;;;9.98;;
30243;SDS011;64022;53.652;9.792;2023-03-21T11:19:51;19.47;;;11.10;;
30243;SDS011;64022;53.652;9.792;2023-03-21T11:22:27;17.50;;;10.43;;
30243;SDS011;64022;53.652;9.792;2023-03-21T11:24:58;17.10;;;10.48;;
30243;SDS011;64022;53.652;9.792;2023-03-21T11:27:28;18.30;;;10.65;;
30243;SDS011;64022;53.652;9.792;2023-03-21T11:29:56;16.75;;;10.15;;
30243;SDS011;64022;53.652;9.792;2023-03-21T11:32:34;18.23;;;11.10;;
30243;SDS011;64022;53.652;9.792;2023-03-21T11:35:17;22.60;;;11.20;;
30243;SDS011;64022;53.652;9.792;2023-03-21T11:37:49;15.00;;;10.48;;
30243;SDS011;64022;53.652;9.792;2023-03-21T11:42:54;19.02;;;11.73;;
30243;SDS011;64022;53.652;9.792;2023-03-21T11:45:29;19.10;;;12.10;;
30243;SDS011;64022;53.652;9.792;2023-03-21T11:47:57;19.27;;;11.85;;
30243;SDS011;64022;53.652;9.792;2023-03-21T11:50:26;21.20;;;12.20;;
30243;SDS011;64022;53.652;9.792;2023-03-21T11:53:02;21.92;;;12.05;;
30243;SDS011;64022;53.652;9.792;2023-03-21T11:56:06;18.70;;;12.07;;
30243;SDS011;64022;53.652;9.792;2023-03-21T11:58:50;18.58;;;11.48;;
30243;SDS011;64022;53.652;9.792;2023-03-21T12:07:14;18.42;;;12.43;;
30243;SDS011;64022;53.652;9.792;2023-03-21T12:09:56;19.05;;;12.77;;
30243;SDS011;64022;53.652;9.792;2023-03-21T12:12:37;16.95;;;11.13;;
30243;SDS011;64022;53.652;9.792;2023-03-21T12:15:22;18.05;;;11.73;;
30243;SDS011;64022;53.652;9.792;2023-03-21T12:18:01;16.25;;;12.25;;
30243;SDS011;64022;53.652;9.792;2023-03-21T12:23:41;18.20;;;12.10;;
30243;SDS011;64022;53.652;9.792;2023-03-21T12:26:13;21.50;;;12.82;;
30243;SDS011;64022;53.652;9.792;2023-03-21T12:31:59;18.27;;;12.95;;
30243;SDS011;64022;53.652;9.792;2023-03-21T12:40:04;19.38;;;13.27;;
30243;SDS011;64022;53.652;9.792;2023-03-21T12:45:38;19.83;;;12.75;;
30243;SDS011;64022;53.652;9.792;2023-03-21T12:50:51;18.90;;;13.55;;
30243;SDS011;64022;53.652;9.792;2023-03-21T12:53:25;17.98;;;12.82;;
30243;SDS011;64022;53.652;9.792;2023-03-21T12:56:15;18.83;;;13.05;;
30243;SDS011;64022;53.652;9.792;2023-03-21T12:59:01;19.33;;;12.93;;
30243;SDS011;64022;53.652;9.792;2023-03-21T13:01:44;19.50;;;13.35;;
30243;SDS011;64022;53.652;9.792;2023-03-21T13:04:33;20.17;;;13.85;;
30243;SDS011;64022;53.652;9.792;2023-03-21T13:07:06;21.50;;;13.90;;
30243;SDS011;64022;53.652;9.792;2023-03-21T13:09:37;19.33;;;14.68;;
30243;SDS011;64022;53.652;9.792;2023-03-21T13:12:27;20.63;;;14.00;;
30243;SDS011;64022;53.652;9.792;2023-03-21T13:15:04;21.77;;;14.18;;
30243;SDS011;64022;53.652;9.792;2023-03-21T13:17:35;18.55;;;13.85;;
30243;SDS011;64022;53.652;9.792;2023-03-21T13:20:15;19.95;;;13.32;;
30243;SDS011;64022;53.652;9.792;2023-03-21T13:22:46;23.02;;;13.95;;
30243;SDS011;64022;53.652;9.792;2023-03-21T13:25:19;20.33;;;14.03;;
30243;SDS011;64022;53.652;9.792;2023-03-21T13:27:51;19.23;;;14.27;;
30243;SDS011;64022;53.652;9.792;2023-03-21T13:30:19;21.58;;;14.30;;
30243;SDS011;64022;53.652;9.792;2023-03-21T13:33:27;22.30;;;13.45;;
30243;SDS011;64022;53.652;9.792;2023-03-21T13:35:53;22.00;;;13.90;;
30243;SDS011;64022;53.652;9.792;2023-03-21T13:38:29;21.23;;;13.63;;
30243;SDS011;64022;53.652;9.792;2023-03-21T13:40:57;23.98;;;14.30;;
30243;SDS011;64022;53.652;9.792;2023-03-21T13:43:39;20.50;;;14.18;;
30243;SDS011;64022;53.652;9.792;2023-03-21T13:57:17;21.58;;;14.00;;
30243;SDS011;64022;53.652;9.792;2023-03-21T14:00:23;18.23;;;12.77;;
30243;SDS011;64022;53.652;9.792;2023-03-21T14:02:55;17.00;;;13.02;;
30243;SDS011;64022;53.652;9.792;2023-03-21T14:05:29;21.35;;;13.70;;
30243;SDS011;64022;53.652;9.792;2023-03-21T14:07:57;21.10;;;13.38;;
30243;SDS011;64022;53.652;9.792;2023-03-21T14:10:33;17.45;;;12.93;;
30243;SDS011;64022;53.652;9.792;2023-03-21T14:13:04;20.80;;;14.25;;
30243;SDS011;64022;53.652;9.792;2023-03-21T14:15:36;19.88;;;13.27;;
30243;SDS011;64022;53.652;9.792;2023-03-21T14:18:14;19.88;;;14.25;;
30243;SDS011;64022;53.652;9.792;2023-03-21T14:20:42;20.23;;;13.35;;
30243;SDS011;64022;53.652;9.792;2023-03-21T14:23:12;18.13;;;13.17;;
30243;SDS011;64022;53.652;9.792;2023-03-21T14:25:39;21.23;;;12.88;;
30243;SDS011;64022;53.652;9.792;2023-03-21T14:28:13;19.73;;;13.02;;
30243;SDS011;64022;53.652;9.792;2023-03-21T14:30:41;21.20;;;12.68;;
30243;SDS011;64022;53.652;9.792;2023-03-21T14:33:14;18.73;;;13.20;;
30243;SDS011;64022;53.652;9.792;2023-03-21T14:36:01;18.77;;;13.45;;
30243;SDS011;64022;53.652;9.792;2023-03-21T14:38:34;18.15;;;12.85;;
30243;SDS011;64022;53.652;9.792;2023-03-21T14:41:01;20.50;;;12.40;;
30243;SDS011;64022;53.652;9.792;2023-03-21T14:43:27;21.25;;;12.82;;
30243;SDS011;64022;53.652;9.792;2023-03-21T14:45:55;19.23;;;13.27;;
30243;SDS011;64022;53.652;9.792;2023-03-21T14:48:31;17.55;;;12.93;;
30243;SDS011;64022;53.652;9.792;2023-03-21T14:51:00;18.10;;;12.98;;
30243;SDS011;64022;53.652;9.792;2023-03-21T14:53:32;22.40;;;13.73;;
30243;SDS011;64022;53.652;9.792;2023-03-21T14:56:08;18.83;;;13.73;;
30243;SDS011;64022;53.652;9.792;2023-03-21T14:58:41;17.95;;;12.05;;
30243;SDS011;64022;53.652;9.792;2023-03-21T15:01:13;22.38;;;12.98;;
30243;SDS011;64022;53.652;9.792;2023-03-21T15:03:45;18.67;;;13.57;;
30243;SDS011;64022;53.652;9.792;2023-03-21T15:06:13;19.75;;;13.25;;
30243;SDS011;64022;53.652;9.792;2023-03-21T15:08:39;20.33;;;14.10;;
30243;SDS011;64022;53.652;9.792;2023-03-21T15:11:17;18.80;;;14.20;;
30243;SDS011;64022;53.652;9.792;2023-03-21T15:13:44;18.73;;;13.70;;
30243;SDS011;64022;53.652;9.792;2023-03-21T15:16:14;17.75;;;13.18;;
30243;SDS011;64022;53.652;9.792;2023-03-21T15:18:40;19.30;;;13.70;;
30243;SDS011;64022;53.652;9.792;2023-03-21T15:21:09;19.33;;;14.48;;
30243;SDS011;64022;53.652;9.792;2023-03-21T15:23:39;18.23;;;13.57;;
30243;SDS011;64022;53.652;9.792;2023-03-21T15:26:11;19.75;;;13.98;;
30243;SDS011;64022;53.652;9.792;2023-03-21T15:28:43;19.20;;;13.50;;
30243;SDS011;64022;53.652;9.792;2023-03-21T15:31:21;21.75;;;14.52;;
30243;SDS011;64022;53.652;9.792;2023-03-21T15:33:55;21.25;;;14.07;;
30243;SDS011;64022;53.652;9.792;2023-03-21T15:36:22;21.77;;;15.70;;
30243;SDS011;64022;53.652;9.792;2023-03-21T15:38:51;21.30;;;13.98;;
30243;SDS011;64022;53.652;9.792;2023-03-21T15:43:43;19.42;;;13.45;;
30243;SDS011;64022;53.652;9.792;2023-03-21T15:46:16;19.45;;;14.20;;
30243;SDS011;64022;53.652;9.792;2023-03-21T15:49:08;19.42;;;13.75;;
30243;SDS011;64022;53.652;9.792;2023-03-21T15:51:40;23.27;;;14.02;;
30243;SDS011;64022;53.652;9.792;2023-03-21T15:54:25;21.48;;;14.60;;
30243;SDS011;64022;53.652;9.792;2023-03-21T15:56:56;20.85;;;14.63;;
30243;SDS011;64022;53.652;9.792;2023-03-21T15:59:33;22.23;;;14.45;;
30243;SDS011;64022;53.652;9.792;2023-03-21T16:02:03;25.05;;;15.38;;
30243;SDS011;64022;53.652;9.792;2023-03-21T16:04:28;20.20;;;14.77;;
30243;SDS011;64022;53.652;9.792;2023-03-21T16:06:58;24.07;;;15.40;;